createdAt,value
2023-05-14T00:00:36.649Z,102332.51
2023-05-14T00:03:27.429Z,102329.48
2023-05-14T00:05:55.729Z,102331.23
2023-05-14T00:08:23.837Z,102335.77
2023-05-14T00:10:52.470Z,102332.94
2023-05-14T00:13:20.616Z,102327.67
2023-05-14T00:15:48.878Z,102313.95
2023-05-14T00:18:17.005Z,102332.00
2023-05-14T00:20:45.506Z,102331.86
2023-05-14T00:23:13.680Z,102329.01
2023-05-14T00:25:41.947Z,102330.75
2023-05-14T00:28:10.093Z,102316.98
2023-05-14T00:30:38.339Z,102329.21
2023-05-14T00:33:07.152Z,102327.98
2023-05-14T00:35:36.018Z,102326.58
2023-05-14T00:38:04.756Z,102333.82
2023-05-14T00:40:33.151Z,102320.98
2023-05-14T00:43:01.701Z,102330.93
2023-05-14T00:45:29.911Z,102329.95
2023-05-14T00:47:58.209Z,102331.12
2023-05-14T00:50:26.937Z,102326.44
2023-05-14T00:52:55.288Z,102329.77
2023-05-14T00:55:23.815Z,102327.48
2023-05-14T00:57:54.766Z,102326.91
2023-05-14T01:00:23.273Z,102325.09
2023-05-14T01:02:51.910Z,102321.31
2023-05-14T01:05:20.306Z,102327.95
2023-05-14T01:08:23.261Z,102317.69
2023-05-14T01:10:57.895Z,102319.89
2023-05-14T01:13:41.142Z,102319.32
2023-05-14T01:16:13.825Z,102318.59
2023-05-14T01:18:44.353Z,102319.52
2023-05-14T01:21:36.444Z,102324.14
2023-05-14T01:24:05.033Z,102323.86
2023-05-14T01:26:33.872Z,102323.86
2023-05-14T01:29:23.272Z,102322.89
2023-05-14T01:31:54.332Z,102323.65
2023-05-14T01:34:24.694Z,102322.23
2023-05-14T01:36:53.925Z,102305.09
2023-05-14T01:39:24.334Z,102315.65
2023-05-14T01:41:54.405Z,102301.63
2023-05-14T01:44:22.686Z,102315.08
2023-05-14T01:46:50.903Z,102315.52
2023-05-14T01:49:19.812Z,102301.85
2023-05-14T01:51:47.972Z,102313.63
2023-05-14T01:54:16.368Z,102317.06
2023-05-14T01:56:44.524Z,102316.27
2023-05-14T01:59:12.612Z,102318.84
2023-05-14T02:01:40.868Z,102287.23
2023-05-14T02:04:09.152Z,102315.89
2023-05-14T02:06:37.346Z,102311.61
2023-05-14T02:09:05.799Z,102314.46
2023-05-14T02:11:33.945Z,102314.30
2023-05-14T02:14:02.070Z,102297.50
2023-05-14T02:16:30.238Z,102311.95
2023-05-14T02:18:58.396Z,102304.66
2023-05-14T02:21:26.587Z,102305.38
2023-05-14T02:23:54.723Z,102308.76
2023-05-14T02:26:22.947Z,102306.20
2023-05-14T02:28:51.858Z,102308.09
2023-05-14T02:31:20.451Z,102306.84
2023-05-14T02:33:48.606Z,102306.41
2023-05-14T02:36:16.755Z,102292.78
2023-05-14T02:38:44.816Z,102309.80
2023-05-14T02:41:12.938Z,102309.38
2023-05-14T02:43:41.387Z,102305.77
2023-05-14T02:46:09.546Z,102305.77
2023-05-14T02:48:37.694Z,102291.29
2023-05-14T02:51:05.847Z,102304.90
2023-05-14T02:53:33.951Z,102305.58
2023-05-14T02:56:02.100Z,102301.92
2023-05-14T02:58:30.476Z,102302.52
2023-05-14T03:00:58.709Z,102298.73
2023-05-14T03:03:29.430Z,102302.31
2023-05-14T03:05:58.168Z,102304.60
2023-05-14T03:08:26.330Z,102302.52
2023-05-14T03:10:54.505Z,102306.23
2023-05-14T03:13:22.586Z,102306.00
2023-05-14T03:15:54.974Z,102306.33
2023-05-14T03:18:23.734Z,102306.69
2023-05-14T03:20:52.034Z,102307.48
2023-05-14T03:23:20.202Z,102307.50
2023-05-14T03:25:48.415Z,102303.37
2023-05-14T03:28:16.520Z,102302.27
2023-05-14T03:30:44.804Z,102304.44
2023-05-14T03:33:13.046Z,102305.64
2023-05-14T03:35:41.153Z,102304.26
2023-05-14T03:38:09.322Z,102302.65
2023-05-14T03:40:37.466Z,102299.63
2023-05-14T03:43:05.559Z,102299.27
2023-05-14T03:45:34.078Z,102298.69
2023-05-14T03:48:02.254Z,102298.10
2023-05-14T03:50:31.366Z,102298.88
2023-05-14T03:52:59.478Z,102297.68
2023-05-14T03:55:27.717Z,102298.29
2023-05-14T03:57:55.856Z,102285.27
2023-05-14T04:00:24.536Z,102294.52
2023-05-14T04:02:54.315Z,102299.00
2023-05-14T04:05:26.884Z,102299.28
2023-05-14T04:07:55.639Z,102303.73
2023-05-14T04:10:23.888Z,102297.80
2023-05-14T04:12:52.238Z,102300.98
2023-05-14T04:15:20.607Z,102299.45
2023-05-14T04:17:48.830Z,102299.22
2023-05-14T04:20:17.020Z,102296.13
2023-05-14T04:22:45.295Z,102291.73
2023-05-14T04:25:13.456Z,102295.44
2023-05-14T04:27:41.725Z,102293.98
2023-05-14T04:30:10.342Z,102278.40
2023-05-14T04:32:39.192Z,102287.63
2023-05-14T04:35:09.129Z,102290.70
2023-05-14T04:37:37.322Z,102289.29
2023-05-14T04:40:07.054Z,102289.33
2023-05-14T04:42:35.145Z,102282.58
2023-05-14T04:45:05.352Z,102282.25
2023-05-14T04:47:33.579Z,102281.25
2023-05-14T04:50:02.179Z,102281.27
2023-05-14T04:52:30.360Z,102281.40
2023-05-14T04:54:58.508Z,102277.65
2023-05-14T04:57:26.845Z,102277.94
2023-05-14T04:59:55.087Z,102278.36
2023-05-14T05:02:23.873Z,102279.90
2023-05-14T05:04:52.070Z,102272.56
2023-05-14T05:07:20.280Z,102267.09
2023-05-14T05:09:48.353Z,102268.45
2023-05-14T05:12:16.493Z,102266.81
2023-05-14T05:14:44.686Z,102262.45
2023-05-14T05:17:12.800Z,102250.90
2023-05-14T05:19:44.286Z,102263.98
2023-05-14T05:22:12.782Z,102258.06
2023-05-14T05:24:41.076Z,102255.41
2023-05-14T05:27:09.179Z,102252.76
2023-05-14T05:29:37.604Z,102253.42
2023-05-14T05:32:06.401Z,102246.44
2023-05-14T05:34:35.968Z,102249.37
2023-05-14T05:37:06.079Z,102249.61
2023-05-14T05:39:35.251Z,102245.11
2023-05-14T05:42:06.137Z,102241.73
2023-05-14T05:44:34.636Z,102242.59
2023-05-14T05:47:02.944Z,102240.73
2023-05-14T05:49:31.122Z,102239.59
2023-05-14T05:51:59.242Z,102235.87
2023-05-14T05:54:27.398Z,102236.59
2023-05-14T05:56:55.708Z,102234.05
2023-05-14T05:59:24.828Z,102235.14
2023-05-14T06:01:53.370Z,102230.92
2023-05-14T06:04:21.659Z,102234.84
2023-05-14T06:06:49.760Z,102236.89
2023-05-14T06:09:17.968Z,102233.45
2023-05-14T06:11:46.175Z,102233.56
2023-05-14T06:14:14.366Z,102239.75
2023-05-14T06:16:42.475Z,102241.61
2023-05-14T06:19:11.292Z,102242.56
2023-05-14T06:21:39.612Z,102243.11
2023-05-14T06:24:07.940Z,102236.59
2023-05-14T06:26:36.068Z,102245.14
2023-05-14T06:29:04.163Z,102242.56
2023-05-14T06:31:32.328Z,102248.40
2023-05-14T06:34:00.457Z,102250.79
2023-05-14T06:36:28.625Z,102246.12
2023-05-14T06:38:56.951Z,102246.83
2023-05-14T06:41:25.052Z,102242.75
2023-05-14T06:43:53.197Z,102249.08
2023-05-14T06:46:21.670Z,102244.36
2023-05-14T06:48:49.887Z,102244.77
2023-05-14T06:51:18.051Z,102244.50
2023-05-14T06:53:47.000Z,102246.77
2023-05-14T06:56:15.137Z,102243.30
2023-05-14T06:58:43.316Z,102240.02
2023-05-14T07:01:11.495Z,102239.41
2023-05-14T07:03:39.699Z,102233.65
2023-05-14T07:06:07.930Z,102233.30
2023-05-14T07:08:36.247Z,102232.11
2023-05-14T07:11:04.572Z,102226.38
2023-05-14T07:13:32.690Z,102225.39
2023-05-14T07:16:00.795Z,102224.54
2023-05-14T07:18:29.017Z,102220.94
2023-05-14T07:20:57.383Z,102219.25
2023-05-14T07:23:25.535Z,102221.38
2023-05-14T07:25:53.751Z,102208.75
2023-05-14T07:28:21.917Z,102210.61
2023-05-14T07:30:50.078Z,102205.83
2023-05-14T07:33:18.376Z,102202.55
2023-05-14T07:35:46.619Z,102198.82
2023-05-14T07:38:15.438Z,102199.58
2023-05-14T07:40:43.737Z,102194.66
2023-05-14T07:43:11.940Z,102196.73
2023-05-14T07:45:40.284Z,102197.13
2023-05-14T07:48:08.776Z,102197.71
2023-05-14T07:50:37.874Z,102191.59
2023-05-14T07:53:06.209Z,102194.44
2023-05-14T07:55:34.291Z,102186.95
2023-05-14T07:58:02.491Z,102183.81
2023-05-14T08:00:30.855Z,102183.88
2023-05-14T08:02:59.421Z,102181.14
2023-05-14T08:05:27.788Z,102180.74
2023-05-14T08:07:56.021Z,102172.21
2023-05-14T08:10:24.340Z,102178.73
2023-05-14T08:12:52.767Z,102172.05
2023-05-14T08:15:21.162Z,102169.91
2023-05-14T08:17:49.376Z,102172.30
2023-05-14T08:20:17.765Z,102168.66
2023-05-14T08:22:45.917Z,102169.72
2023-05-14T08:25:14.068Z,102166.98
2023-05-14T08:27:42.265Z,102157.16
2023-05-14T08:30:10.843Z,102162.40
2023-05-14T08:32:39.548Z,102161.80
2023-05-14T08:35:08.421Z,102155.87
2023-05-14T08:37:36.548Z,102152.59
2023-05-14T08:40:04.996Z,102149.77
2023-05-14T08:42:33.358Z,102147.05
2023-05-14T08:45:03.321Z,102147.55
2023-05-14T08:47:32.012Z,102141.92
2023-05-14T08:50:08.428Z,102139.11
2023-05-14T08:52:36.523Z,102126.65
2023-05-14T08:55:06.669Z,102133.73
2023-05-14T08:57:35.525Z,102133.12
2023-05-14T09:00:08.823Z,102125.67
2023-05-14T09:02:37.538Z,102123.02
2023-05-14T09:05:07.571Z,102126.88
2023-05-14T09:07:36.268Z,102118.63
2023-05-14T09:10:04.930Z,102115.20
2023-05-14T09:12:33.200Z,102111.15
2023-05-14T09:15:01.334Z,102111.14
2023-05-14T09:17:29.601Z,102105.84
2023-05-14T09:19:58.557Z,102107.02
2023-05-14T09:22:31.924Z,102103.44
2023-05-14T09:25:07.123Z,102096.59
2023-05-14T09:27:36.535Z,102094.92
2023-05-14T09:30:12.625Z,102091.20
2023-05-14T09:32:50.640Z,102080.50
2023-05-14T09:35:23.981Z,102084.09
2023-05-14T09:37:53.989Z,102083.11
2023-05-14T09:40:24.581Z,102077.33
2023-05-14T09:42:53.504Z,102074.09
2023-05-14T09:45:21.985Z,102071.67
2023-05-14T09:47:50.353Z,102066.93
2023-05-14T09:50:18.657Z,102066.88
2023-05-14T09:52:46.809Z,102067.48
2023-05-14T09:55:16.187Z,102065.16
2023-05-14T09:57:45.180Z,102057.30
2023-05-14T10:00:13.918Z,102054.61
2023-05-14T10:02:45.703Z,102049.44
2023-05-14T10:05:16.063Z,102047.04
2023-05-14T10:07:51.823Z,102044.98
2023-05-14T10:10:21.464Z,102042.45
2023-05-14T10:13:04.761Z,102036.79
2023-05-14T10:15:59.512Z,102031.89
2023-05-14T10:18:31.793Z,102031.88
2023-05-14T10:21:08.147Z,102032.42
2023-05-14T10:23:38.170Z,102030.05
2023-05-14T10:26:07.072Z,102023.07
2023-05-14T10:28:36.987Z,102018.16
2023-05-14T10:31:05.212Z,102007.57
2023-05-14T10:33:47.348Z,102020.38
2023-05-14T10:36:15.749Z,102015.93
2023-05-14T10:38:43.967Z,102015.52
2023-05-14T10:41:18.061Z,102009.43
2023-05-14T10:43:46.294Z,102010.64
2023-05-14T10:46:15.158Z,102001.27
2023-05-14T10:48:44.538Z,101996.66
2023-05-14T10:51:13.068Z,101986.61
2023-05-14T10:53:43.300Z,101998.11
2023-05-14T10:56:14.776Z,101992.34
2023-05-14T10:58:44.939Z,101989.11
2023-05-14T11:01:14.036Z,101987.35
2023-05-14T11:03:46.970Z,101988.30
2023-05-14T11:06:16.404Z,101988.71
2023-05-14T11:08:46.618Z,101985.48
2023-05-14T11:11:15.121Z,101972.55
2023-05-14T11:13:44.861Z,101979.39
2023-05-14T11:16:23.436Z,101976.59
2023-05-14T11:19:03.522Z,101972.27
2023-05-14T11:21:33.051Z,101957.95
2023-05-14T11:24:01.764Z,101963.52
2023-05-14T11:26:31.814Z,101953.21
2023-05-14T11:29:00.243Z,101964.34
2023-05-14T11:31:28.517Z,101960.77
2023-05-14T11:33:57.084Z,101959.70
2023-05-14T11:36:25.299Z,101947.89
2023-05-14T11:38:53.545Z,101950.94
2023-05-14T11:41:23.163Z,101950.42
2023-05-14T11:43:51.721Z,101944.23
2023-05-14T11:46:20.103Z,101942.23
2023-05-14T11:48:48.573Z,101931.10
2023-05-14T11:51:17.024Z,101929.85
2023-05-14T11:53:46.334Z,101922.87
2023-05-14T11:56:14.501Z,101920.23
2023-05-14T11:58:48.690Z,101917.02
2023-05-14T12:01:17.322Z,101921.65
2023-05-14T12:03:45.999Z,101921.70
2023-05-14T12:06:14.235Z,101924.79
2023-05-14T12:08:42.499Z,101920.74
2023-05-14T12:11:10.670Z,101916.99
2023-05-14T12:13:39.845Z,101913.41
2023-05-14T12:16:08.060Z,101913.70
2023-05-14T12:18:37.279Z,101915.45
2023-05-14T12:21:08.463Z,101912.07
2023-05-14T12:23:39.174Z,101912.23
2023-05-14T12:26:09.237Z,101909.23
2023-05-14T12:28:43.615Z,101901.92
2023-05-14T12:31:12.118Z,101899.86
2023-05-14T12:33:40.549Z,101899.55
2023-05-14T12:38:42.009Z,101893.58
2023-05-14T12:41:10.131Z,101895.05
2023-05-14T12:43:38.371Z,101888.95
2023-05-14T12:46:06.743Z,101883.74
2023-05-14T12:48:34.978Z,101886.13
2023-05-14T12:51:03.299Z,101885.52
2023-05-14T12:53:31.525Z,101885.42
2023-05-14T12:55:59.642Z,101884.71
2023-05-14T12:58:27.764Z,101885.44
2023-05-14T13:00:56.667Z,101897.85
2023-05-14T13:03:25.355Z,101891.30
2023-05-14T13:05:54.469Z,101889.82
2023-05-14T13:08:25.146Z,101893.48
2023-05-14T13:10:54.231Z,101903.58
2023-05-14T13:13:23.082Z,101922.68
2023-05-14T13:15:51.242Z,101917.25
2023-05-14T13:18:19.535Z,101910.54
2023-05-14T13:20:48.038Z,101901.13
2023-05-14T13:23:16.219Z,101883.42
2023-05-14T13:25:44.334Z,101870.59
2023-05-14T13:28:12.629Z,101879.90
2023-05-14T13:30:41.038Z,101881.06
2023-05-14T13:33:09.260Z,101872.20
2023-05-14T13:35:37.665Z,101862.41
2023-05-14T13:38:05.909Z,101858.75
2023-05-14T13:40:34.011Z,101854.42
2023-05-14T13:43:03.178Z,101851.38
2023-05-14T13:45:31.275Z,101847.83
2023-05-14T13:47:59.465Z,101844.44
2023-05-14T13:50:27.607Z,101834.10
2023-05-14T13:52:55.691Z,101827.73
2023-05-14T13:55:23.950Z,101818.20
2023-05-14T13:57:52.163Z,101812.09
2023-05-14T14:00:20.532Z,101814.58
2023-05-14T14:02:48.636Z,101810.91
2023-05-14T14:05:16.888Z,101812.35
2023-05-14T14:07:45.784Z,101806.05
2023-05-14T14:10:14.777Z,101810.77
2023-05-14T14:12:42.891Z,101811.85
2023-05-14T14:15:11.551Z,101807.54
2023-05-14T14:17:41.836Z,101806.75
2023-05-14T14:20:10.780Z,101801.00
2023-05-14T14:22:39.145Z,101801.54
2023-05-14T14:25:08.647Z,101801.13
2023-05-14T14:27:38.675Z,101797.48
2023-05-14T14:30:17.097Z,101790.89
2023-05-14T14:32:46.989Z,101791.48
2023-05-14T14:35:17.030Z,101788.53
2023-05-14T14:37:49.244Z,101779.16
2023-05-14T14:40:17.918Z,101783.16
2023-05-14T14:42:46.071Z,101783.25
2023-05-14T14:45:14.255Z,101781.22
2023-05-14T14:47:47.244Z,101777.23
2023-05-14T14:50:15.672Z,101777.20
2023-05-14T14:52:46.005Z,101774.54
2023-05-14T14:55:14.313Z,101770.72
2023-05-14T14:57:42.504Z,101775.08
2023-05-14T15:00:11.467Z,101770.02
2023-05-14T15:02:42.308Z,101769.41
2023-05-14T15:05:10.662Z,101764.69
2023-05-14T15:07:38.860Z,101758.70
2023-05-14T15:10:07.642Z,101753.05
2023-05-14T15:12:35.956Z,101742.64
2023-05-14T15:15:04.380Z,101739.66
2023-05-14T15:17:32.546Z,101740.64
2023-05-14T15:20:00.712Z,101740.38
2023-05-14T15:22:28.888Z,101737.36
2023-05-14T15:24:57.030Z,101728.54
2023-05-14T15:27:25.319Z,101724.84
2023-05-14T15:29:53.825Z,101721.21
2023-05-14T15:32:22.285Z,101721.98
2023-05-14T15:34:50.547Z,101721.63
2023-05-14T15:37:18.838Z,101724.48
2023-05-14T15:39:47.024Z,101724.92
2023-05-14T15:42:15.241Z,101719.06
2023-05-14T15:44:43.394Z,101715.61
2023-05-14T15:47:11.485Z,101717.23
2023-05-14T15:49:39.632Z,101716.85
2023-05-14T15:52:07.995Z,101711.94
2023-05-14T15:54:36.189Z,101708.89
2023-05-14T15:57:04.616Z,101710.66
2023-05-14T15:59:32.819Z,101699.16
2023-05-14T16:02:00.963Z,101703.86
2023-05-14T16:04:29.237Z,101710.90
2023-05-14T16:07:08.042Z,101714.29
2023-05-14T16:09:38.866Z,101707.87
2023-05-14T16:12:08.099Z,101715.61
2023-05-14T16:14:36.542Z,101717.39
2023-05-14T16:17:04.898Z,101705.59
2023-05-14T16:19:32.987Z,101700.67
2023-05-14T16:22:01.429Z,101690.87
2023-05-14T16:24:29.717Z,101687.25
2023-05-14T16:26:58.483Z,101688.89
2023-05-14T16:29:26.545Z,101690.00
2023-05-14T16:31:54.979Z,101675.58
2023-05-14T16:34:23.114Z,101679.80
2023-05-14T16:36:51.269Z,101676.98
2023-05-14T16:39:20.108Z,101676.14
2023-05-14T16:41:48.220Z,101675.95
2023-05-14T16:44:16.610Z,101674.23
2023-05-14T16:46:45.012Z,101672.75
2023-05-14T16:49:14.203Z,101669.62
2023-05-14T16:51:44.018Z,101668.38
2023-05-14T16:54:12.165Z,101670.09
2023-05-14T16:56:40.623Z,101669.64
2023-05-14T16:59:08.978Z,101672.84
2023-05-14T17:01:37.691Z,101667.08
2023-05-14T17:04:06.003Z,101662.90
2023-05-14T17:06:34.797Z,101659.09
2023-05-14T17:09:03.788Z,101651.81
2023-05-14T17:11:31.855Z,101651.13
2023-05-14T17:13:58.872Z,101651.00
2023-05-14T17:16:26.271Z,101651.13
2023-05-14T17:18:56.571Z,101657.54
2023-05-14T17:21:24.936Z,101659.48
2023-05-14T17:23:53.191Z,101656.11
2023-05-14T17:26:21.984Z,101656.72
2023-05-14T17:28:50.120Z,101652.74
2023-05-14T17:31:18.444Z,101652.81
2023-05-14T17:33:46.817Z,101653.30
2023-05-14T17:36:15.402Z,101654.52
2023-05-14T17:38:43.970Z,101654.17
2023-05-14T17:41:12.451Z,101658.34
2023-05-14T17:43:40.605Z,101659.89
2023-05-14T17:46:08.923Z,101661.04
2023-05-14T17:48:37.018Z,101658.84
2023-05-14T17:51:05.195Z,101652.19
2023-05-14T17:53:33.365Z,101649.48
2023-05-14T17:56:01.635Z,101653.91
2023-05-14T17:58:30.066Z,101654.10
2023-05-14T18:00:58.275Z,101649.92
2023-05-14T18:03:26.833Z,101634.02
2023-05-14T18:05:55.304Z,101620.86
2023-05-14T18:08:23.533Z,101647.05
2023-05-14T18:10:51.774Z,101648.70
2023-05-14T18:13:20.268Z,101648.53
2023-05-14T18:15:48.499Z,101646.59
2023-05-14T18:18:18.887Z,101645.42
2023-05-14T18:20:47.198Z,101646.87
2023-05-14T18:23:15.517Z,101649.42
2023-05-14T18:25:43.900Z,101646.34
2023-05-14T18:28:13.269Z,101648.47
2023-05-14T18:30:44.165Z,101649.09
2023-05-14T18:33:13.526Z,101651.90
2023-05-14T18:35:44.100Z,101652.15
2023-05-14T18:38:13.970Z,101649.09
2023-05-14T18:40:42.085Z,101648.02
2023-05-14T18:43:11.748Z,101649.60
2023-05-14T18:45:40.534Z,101649.10
2023-05-14T18:48:10.072Z,101637.56
2023-05-14T18:50:39.369Z,101645.35
2023-05-14T18:53:08.518Z,101647.76
2023-05-14T18:55:37.183Z,101649.15
2023-05-14T18:58:05.450Z,101650.72
2023-05-14T19:00:33.586Z,101653.52
2023-05-14T19:03:01.776Z,101652.35
2023-05-14T19:05:30.329Z,101655.23
2023-05-14T19:07:58.541Z,101653.98
2023-05-14T19:10:26.869Z,101658.73
2023-05-14T19:12:55.053Z,101656.90
2023-05-14T19:15:23.803Z,101652.15
2023-05-14T19:17:54.143Z,101650.88
2023-05-14T19:20:22.440Z,101648.02
2023-05-14T19:22:50.787Z,101648.00
2023-05-14T19:25:18.899Z,101644.94
2023-05-14T19:27:51.024Z,101645.71
2023-05-14T19:30:20.303Z,101642.02
2023-05-14T19:32:48.489Z,101640.49
2023-05-14T19:35:16.641Z,101637.00
2023-05-14T19:37:44.782Z,101637.26
2023-05-14T19:40:13.177Z,101635.66
2023-05-14T19:42:41.559Z,101636.56
2023-05-14T19:45:10.382Z,101633.33
2023-05-14T19:47:38.830Z,101633.95
2023-05-14T19:50:08.615Z,101632.80
2023-05-14T19:52:36.702Z,101636.95
2023-05-14T19:55:05.397Z,101620.81
2023-05-14T19:57:33.513Z,101632.86
2023-05-14T20:00:01.704Z,101633.17
2023-05-14T20:02:30.311Z,101631.06
2023-05-14T20:04:58.715Z,101633.02
2023-05-14T20:07:26.977Z,101631.36
2023-05-14T20:09:55.141Z,101632.39
2023-05-14T20:12:23.454Z,101627.16
2023-05-14T20:14:51.804Z,101631.84
2023-05-14T20:17:21.130Z,101631.23
2023-05-14T20:19:49.224Z,101630.48
2023-05-14T20:22:17.315Z,101626.81
2023-05-14T20:24:45.614Z,101628.94
2023-05-14T20:27:13.908Z,101628.95
2023-05-14T20:29:42.105Z,101626.61
2023-05-14T20:32:10.455Z,101626.89
2023-05-14T20:34:38.592Z,101627.42
2023-05-14T20:37:08.137Z,101623.89
2023-05-14T20:39:36.383Z,101620.10
2023-05-14T20:42:04.841Z,101620.61
2023-05-14T20:44:32.993Z,101617.20
2023-05-14T20:47:01.400Z,101617.81
2023-05-14T20:49:29.627Z,101615.24
2023-05-14T20:51:57.680Z,101616.89
2023-05-14T20:54:25.740Z,101615.67
2023-05-14T20:56:53.939Z,101613.27
2023-05-14T20:59:22.055Z,101610.91
2023-05-14T21:01:51.085Z,101613.16
2023-05-14T21:04:19.564Z,101597.77
2023-05-14T21:06:47.761Z,101609.57
2023-05-14T21:09:16.190Z,101606.75
2023-05-14T21:11:44.588Z,101601.79
2023-05-14T21:14:12.859Z,101598.09
2023-05-14T21:16:41.072Z,101595.11
2023-05-14T21:19:09.420Z,101593.28
2023-05-14T21:21:37.965Z,101591.14
2023-05-14T21:24:06.442Z,101593.33
2023-05-14T21:26:35.863Z,101592.20
2023-05-14T21:29:04.315Z,101590.52
2023-05-14T21:31:32.468Z,101594.45
2023-05-14T21:34:00.797Z,101579.77
2023-05-14T21:36:29.195Z,101585.55
2023-05-14T21:38:57.372Z,101584.16
2023-05-14T21:41:25.713Z,101577.05
2023-05-14T21:43:53.813Z,101577.08
2023-05-14T21:46:21.984Z,101575.57
2023-05-14T21:48:50.234Z,101573.81
2023-05-14T21:51:18.346Z,101576.63
2023-05-14T21:53:48.592Z,101574.34
2023-05-14T21:56:16.760Z,101569.84
2023-05-14T21:58:45.132Z,101560.73
2023-05-14T22:01:13.264Z,101569.48
2023-05-14T22:03:41.570Z,101568.88
2023-05-14T22:06:09.710Z,101565.91
2023-05-14T22:08:37.837Z,101566.08
2023-05-14T22:11:05.975Z,101563.84
2023-05-14T22:13:35.518Z,101564.11
2023-05-14T22:16:12.029Z,101565.38
2023-05-14T22:18:41.697Z,101563.60
2023-05-14T22:21:09.951Z,101564.45
2023-05-14T22:23:38.046Z,101561.11
2023-05-14T22:26:06.208Z,101563.60
2023-05-14T22:28:34.370Z,101564.08
2023-05-14T22:31:02.571Z,101566.64
2023-05-14T22:33:33.248Z,101562.45
2023-05-14T22:36:01.535Z,101557.17
2023-05-14T22:38:29.624Z,101557.96
2023-05-14T22:40:57.751Z,101555.80
2023-05-14T22:43:25.959Z,101554.66
2023-05-14T22:45:54.209Z,101550.27
2023-05-14T22:48:22.622Z,101544.55
2023-05-14T22:50:51.920Z,101541.26
2023-05-14T22:53:20.033Z,101542.30
2023-05-14T22:55:48.215Z,101539.09
2023-05-14T22:58:16.430Z,101538.58
2023-05-14T23:00:44.513Z,101535.83
2023-05-14T23:03:12.610Z,101521.56
2023-05-14T23:05:40.818Z,101518.38
2023-05-14T23:08:09.108Z,101525.70
2023-05-14T23:10:37.400Z,101520.88
2023-05-14T23:13:05.649Z,101521.40
2023-05-14T23:15:33.754Z,101510.02
2023-05-14T23:18:01.998Z,101513.41
2023-05-14T23:20:30.191Z,101509.38
2023-05-14T23:22:58.313Z,101504.33
2023-05-14T23:25:26.481Z,101496.90
2023-05-14T23:27:54.682Z,101495.66
2023-05-14T23:30:22.794Z,101489.56
2023-05-14T23:32:50.986Z,101488.25
2023-05-14T23:35:19.348Z,101486.59
2023-05-14T23:37:49.645Z,101484.20
2023-05-14T23:40:18.396Z,101484.39
2023-05-14T23:42:46.879Z,101475.83
2023-05-14T23:45:15.146Z,101471.37
2023-05-14T23:47:43.378Z,101464.35
2023-05-14T23:50:11.629Z,101462.73
2023-05-14T23:52:39.717Z,101456.25
2023-05-14T23:55:08.101Z,101448.86
2023-05-14T23:57:36.341Z,101444.58
